AUA699M LOWW-LROP
Flight info
| Callsign | AUA699M |
|---|---|
| Flight time | 1h 18m |
| Altitude | 37000 |
| Route | ADAMA2C/29 ADAMA DCT VEDER DCT ALAMU DCT EPARI DCT OSLEN DCT TEGRI DCT NEKUL DCT LAMIT DCT TOSVI |
| Aircraft | A320/M-SDE3FGHIRWY/LB1 |
Departure
| Time | 2026-04-25 19:19 |
|---|---|
| Airport | Vienna International Airport (LOWW) |
Arrival
| Time | 2026-04-25 20:37 |
|---|---|
| Airport | Bucharest Henri Coandă International Airport (LROP) |
| Time | Latitude | Longitude | Altitude | Speed | Heading |
|---|---|---|---|---|---|
| 2026-04-25 18:48 | 48.11681 | 16.56930 | 626 ft | 0 kts | 26° |
| 2026-04-25 19:06 | 48.11660 | 16.56915 | 627 ft | 2 kts | 27° |
| 2026-04-25 19:06 | 48.11646 | 16.56903 | 620 ft | 2 kts | 28° |
| 2026-04-25 19:07 | 48.11617 | 16.56878 | 626 ft | 2 kts | 37° |
| 2026-04-25 19:07 | 48.11605 | 16.56861 | 610 ft | 2 kts | 63° |
| 2026-04-25 19:08 | 48.11604 | 16.56837 | 622 ft | 0 kts | 115° |
| 2026-04-25 19:11 | 48.11599 | 16.56850 | 627 ft | 5 kts | 117° |
| 2026-04-25 19:11 | 48.11566 | 16.56909 | 612 ft | 7 kts | 152° |
| 2026-04-25 19:11 | 48.11526 | 16.56914 | 621 ft | 5 kts | 198° |
| 2026-04-25 19:11 | 48.11501 | 16.56898 | 616 ft | 3 kts | 205° |
| 2026-04-25 19:12 | 48.11485 | 16.56887 | 610 ft | 2 kts | 205° |
| 2026-04-25 19:12 | 48.11454 | 16.56866 | 620 ft | 10 kts | 205° |
| 2026-04-25 19:12 | 48.11376 | 16.56832 | 622 ft | 14 kts | 162° |
| 2026-04-25 19:12 | 48.11309 | 16.56988 | 617 ft | 23 kts | 116° |
| 2026-04-25 19:13 | 48.11237 | 16.57195 | 620 ft | 21 kts | 118° |
| 2026-04-25 19:13 | 48.11176 | 16.57375 | 618 ft | 13 kts | 115° |
| 2026-04-25 19:13 | 48.11139 | 16.57493 | 615 ft | 12 kts | 115° |
| 2026-04-25 19:13 | 48.11123 | 16.57539 | 613 ft | 0 kts | 116° |
| 2026-04-25 19:14 | 48.11108 | 16.57585 | 616 ft | 7 kts | 116° |
| 2026-04-25 19:15 | 48.11070 | 16.57644 | 610 ft | 8 kts | 160° |
| 2026-04-25 19:15 | 48.11025 | 16.57634 | 621 ft | 0 kts | 204° |
| 2026-04-25 19:16 | 48.11021 | 16.57631 | 619 ft | 5 kts | 205° |
| 2026-04-25 19:16 | 48.10979 | 16.57601 | 619 ft | 6 kts | 206° |
| 2026-04-25 19:16 | 48.10944 | 16.57572 | 616 ft | 6 kts | 217° |
| 2026-04-25 19:16 | 48.10923 | 16.57519 | 620 ft | 6 kts | 258° |
| 2026-04-25 19:17 | 48.10936 | 16.57470 | 613 ft | 0 kts | 295° |
| 2026-04-25 19:17 | 48.10942 | 16.57450 | 615 ft | 13 kts | 297° |
| 2026-04-25 19:18 | 48.11097 | 16.56977 | 619 ft | 84 kts | 296° |
| 2026-04-25 19:18 | 48.11436 | 16.55936 | 620 ft | 137 kts | 296° |
| 2026-04-25 19:18 | 48.11897 | 16.54481 | 728 ft | 166 kts | 294° |
| 2026-04-25 19:18 | 48.12367 | 16.52796 | 1079 ft | 185 kts | 278° |
| 2026-04-25 19:19 | 48.12054 | 16.50979 | 1717 ft | 191 kts | 233° |
| 2026-04-25 19:19 | 48.10886 | 16.49908 | 2418 ft | 209 kts | 206° |
| 2026-04-25 19:19 | 48.09438 | 16.49345 | 2931 ft | 220 kts | 197° |
| 2026-04-25 19:19 | 48.08410 | 16.49038 | 3286 ft | 226 kts | 196° |
| 2026-04-25 19:20 | 48.06355 | 16.48564 | 4218 ft | 229 kts | 178° |
| 2026-04-25 19:20 | 48.04796 | 16.49195 | 4812 ft | 240 kts | 152° |
| 2026-04-25 19:20 | 48.03353 | 16.50601 | 5220 ft | 256 kts | 147° |
| 2026-04-25 19:20 | 48.01808 | 16.52098 | 5645 ft | 273 kts | 148° |
| 2026-04-25 19:21 | 48.00150 | 16.53645 | 6172 ft | 287 kts | 149° |
| 2026-04-25 19:21 | 47.97006 | 16.57360 | 7644 ft | 294 kts | 124° |
| 2026-04-25 19:21 | 47.96184 | 16.60143 | 8387 ft | 296 kts | 99° |
| 2026-04-25 19:22 | 47.96117 | 16.63207 | 9072 ft | 299 kts | 85° |
| 2026-04-25 19:22 | 47.96245 | 16.66346 | 9756 ft | 306 kts | 85° |
| 2026-04-25 19:22 | 47.96530 | 16.72883 | 10650 ft | 331 kts | 84° |
| 2026-04-25 19:23 | 47.96679 | 16.76400 | 10977 ft | 348 kts | 85° |
| 2026-04-25 19:23 | 47.96977 | 16.83910 | 11797 ft | 372 kts | 85° |
| 2026-04-25 19:23 | 47.97124 | 16.87784 | 12441 ft | 376 kts | 85° |
| 2026-04-25 19:24 | 47.97269 | 16.91701 | 13072 ft | 380 kts | 85° |
| 2026-04-25 19:24 | 47.97414 | 16.95661 | 13698 ft | 384 kts | 85° |
| 2026-04-25 19:24 | 47.97711 | 17.03712 | 14807 ft | 392 kts | 85° |
| 2026-04-25 19:25 | 47.98010 | 17.11906 | 15904 ft | 399 kts | 85° |
| 2026-04-25 19:25 | 47.98156 | 17.16006 | 16452 ft | 402 kts | 85° |
| 2026-04-25 19:25 | 47.98302 | 17.20187 | 17001 ft | 405 kts | 85° |
| 2026-04-25 19:26 | 47.98446 | 17.24409 | 17535 ft | 409 kts | 85° |
| 2026-04-25 19:26 | 47.98591 | 17.28664 | 18076 ft | 412 kts | 85° |
| 2026-04-25 19:26 | 47.98574 | 17.32961 | 18559 ft | 417 kts | 94° |
| 2026-04-25 19:26 | 47.98081 | 17.37240 | 19034 ft | 421 kts | 105° |
| 2026-04-25 19:27 | 47.97193 | 17.41411 | 19488 ft | 424 kts | 108° |
| 2026-04-25 19:27 | 47.96879 | 17.42827 | 19641 ft | 425 kts | 108° |
| 2026-04-25 19:27 | 47.95333 | 17.49826 | 20406 ft | 430 kts | 108° |
| 2026-04-25 19:27 | 47.94399 | 17.54086 | 20875 ft | 433 kts | 108° |
| 2026-04-25 19:28 | 47.93459 | 17.58376 | 21331 ft | 436 kts | 109° |
| 2026-04-25 19:28 | 47.92512 | 17.62693 | 21779 ft | 439 kts | 109° |
| 2026-04-25 19:28 | 47.91557 | 17.67032 | 22218 ft | 442 kts | 109° |
| 2026-04-25 19:28 | 47.90592 | 17.71395 | 22648 ft | 445 kts | 109° |
| 2026-04-25 19:29 | 47.89617 | 17.75784 | 23070 ft | 447 kts | 109° |
| 2026-04-25 19:29 | 47.88634 | 17.80195 | 23481 ft | 450 kts | 109° |
| 2026-04-25 19:29 | 47.87644 | 17.84632 | 23836 ft | 453 kts | 109° |
| 2026-04-25 19:29 | 47.86647 | 17.89087 | 24150 ft | 455 kts | 109° |
| 2026-04-25 19:30 | 47.85642 | 17.93570 | 24473 ft | 458 kts | 109° |
| 2026-04-25 19:30 | 47.84601 | 17.98060 | 24783 ft | 459 kts | 113° |
| 2026-04-25 19:30 | 47.83292 | 18.02398 | 25085 ft | 461 kts | 116° |
| 2026-04-25 19:30 | 47.81937 | 18.06741 | 25374 ft | 463 kts | 116° |
| 2026-04-25 19:31 | 47.80576 | 18.11098 | 25669 ft | 466 kts | 116° |
| 2026-04-25 19:31 | 47.79203 | 18.15479 | 25956 ft | 468 kts | 116° |
| 2026-04-25 19:31 | 47.77823 | 18.19873 | 26240 ft | 471 kts | 116° |
| 2026-04-25 19:31 | 47.76433 | 18.24288 | 26512 ft | 473 kts | 116° |
| 2026-04-25 19:32 | 47.75042 | 18.28735 | 26782 ft | 476 kts | 115° |
| 2026-04-25 19:32 | 47.73935 | 18.33382 | 27058 ft | 479 kts | 105° |
| 2026-04-25 19:32 | 47.73295 | 18.38246 | 27324 ft | 481 kts | 96° |
| 2026-04-25 19:32 | 47.73178 | 18.39851 | 27404 ft | 482 kts | 95° |
| 2026-04-25 19:33 | 47.72577 | 18.48109 | 27826 ft | 486 kts | 96° |
| 2026-04-25 19:33 | 47.72195 | 18.53106 | 28079 ft | 488 kts | 96° |
| 2026-04-25 19:33 | 47.71799 | 18.58129 | 28327 ft | 490 kts | 96° |
| 2026-04-25 19:33 | 47.71397 | 18.63167 | 28558 ft | 493 kts | 96° |
| 2026-04-25 19:34 | 47.70993 | 18.68231 | 28787 ft | 495 kts | 96° |
| 2026-04-25 19:34 | 47.70590 | 18.73311 | 29009 ft | 497 kts | 96° |
| 2026-04-25 19:34 | 47.70184 | 18.78410 | 29229 ft | 498 kts | 96° |
| 2026-04-25 19:34 | 47.69777 | 18.83532 | 29448 ft | 500 kts | 96° |
| 2026-04-25 19:35 | 47.69312 | 18.88659 | 29673 ft | 502 kts | 101° |
| 2026-04-25 19:35 | 47.68411 | 18.93662 | 29882 ft | 502 kts | 111° |
| 2026-04-25 19:35 | 47.67015 | 18.98410 | 30063 ft | 502 kts | 120° |
| 2026-04-25 19:35 | 47.65160 | 19.02788 | 30205 ft | 501 kts | 130° |
| 2026-04-25 19:36 | 47.62911 | 19.06700 | 30389 ft | 497 kts | 137° |
| 2026-04-25 19:36 | 47.60515 | 19.10382 | 30617 ft | 497 kts | 137° |
| 2026-04-25 19:36 | 47.58121 | 19.14082 | 30839 ft | 497 kts | 137° |
| 2026-04-25 19:36 | 47.55734 | 19.17777 | 31062 ft | 497 kts | 137° |
| 2026-04-25 19:37 | 47.53349 | 19.21469 | 31280 ft | 496 kts | 137° |
| 2026-04-25 19:37 | 47.51769 | 19.23914 | 31419 ft | 497 kts | 137° |
| 2026-04-25 19:37 | 47.49380 | 19.27604 | 31635 ft | 496 kts | 137° |
| 2026-04-25 19:37 | 47.46989 | 19.31289 | 31845 ft | 497 kts | 137° |
| 2026-04-25 19:38 | 47.44594 | 19.34964 | 32049 ft | 497 kts | 137° |
| 2026-04-25 19:38 | 47.42194 | 19.38640 | 32254 ft | 497 kts | 137° |
| 2026-04-25 19:38 | 47.39793 | 19.42313 | 32457 ft | 497 kts | 137° |
| 2026-04-25 19:38 | 47.37391 | 19.45982 | 32659 ft | 497 kts | 137° |
| 2026-04-25 19:39 | 47.34988 | 19.49648 | 32870 ft | 497 kts | 137° |
| 2026-04-25 19:39 | 47.32587 | 19.53309 | 33073 ft | 497 kts | 137° |
| 2026-04-25 19:39 | 47.30179 | 19.56977 | 33279 ft | 497 kts | 137° |
| 2026-04-25 19:39 | 47.27774 | 19.60630 | 33478 ft | 497 kts | 137° |
| 2026-04-25 19:40 | 47.25400 | 19.64230 | 33684 ft | 497 kts | 137° |
| 2026-04-25 19:40 | 47.22994 | 19.67873 | 33888 ft | 497 kts | 137° |
| 2026-04-25 19:40 | 47.20587 | 19.71513 | 34077 ft | 496 kts | 137° |
| 2026-04-25 19:40 | 47.18182 | 19.75148 | 34270 ft | 496 kts | 137° |
| 2026-04-25 19:41 | 47.15780 | 19.78780 | 34464 ft | 495 kts | 137° |
| 2026-04-25 19:41 | 47.13380 | 19.82400 | 34654 ft | 494 kts | 137° |
| 2026-04-25 19:41 | 47.10984 | 19.86012 | 34836 ft | 493 kts | 137° |
| 2026-04-25 19:41 | 47.09365 | 19.88450 | 34949 ft | 493 kts | 137° |
| 2026-04-25 19:42 | 47.06195 | 19.93214 | 35162 ft | 492 kts | 137° |
| 2026-04-25 19:42 | 47.03803 | 19.96802 | 35326 ft | 492 kts | 137° |
| 2026-04-25 19:42 | 47.01409 | 20.00390 | 35458 ft | 492 kts | 137° |
| 2026-04-25 19:42 | 46.99017 | 20.03967 | 35601 ft | 491 kts | 137° |
| 2026-04-25 19:43 | 46.96625 | 20.07537 | 35741 ft | 491 kts | 137° |
| 2026-04-25 19:43 | 46.94233 | 20.11101 | 35883 ft | 490 kts | 137° |
| 2026-04-25 19:43 | 46.91844 | 20.14656 | 36012 ft | 490 kts | 137° |
| 2026-04-25 19:43 | 46.89455 | 20.18203 | 36143 ft | 490 kts | 138° |
| 2026-04-25 19:44 | 46.87066 | 20.21747 | 36271 ft | 489 kts | 138° |
| 2026-04-25 19:44 | 46.84678 | 20.25285 | 36408 ft | 489 kts | 138° |
| 2026-04-25 19:44 | 46.82293 | 20.28817 | 36530 ft | 488 kts | 138° |
| 2026-04-25 19:44 | 46.79912 | 20.32339 | 36661 ft | 487 kts | 138° |
| 2026-04-25 19:45 | 46.77532 | 20.35856 | 36804 ft | 486 kts | 138° |
| 2026-04-25 19:45 | 46.75156 | 20.39365 | 36939 ft | 486 kts | 137° |
| 2026-04-25 19:45 | 46.70397 | 20.46379 | 36957 ft | 487 kts | 138° |
| 2026-04-25 19:46 | 46.65624 | 20.53380 | 36958 ft | 487 kts | 138° |
| 2026-04-25 19:46 | 46.60845 | 20.60374 | 36960 ft | 487 kts | 138° |
| 2026-04-25 19:47 | 46.56062 | 20.67351 | 36967 ft | 487 kts | 138° |
| 2026-04-25 19:47 | 46.51667 | 20.74823 | 36971 ft | 491 kts | 120° |
| 2026-04-25 19:48 | 46.48428 | 20.83568 | 36959 ft | 492 kts | 119° |
| 2026-04-25 19:48 | 46.45198 | 20.92336 | 36974 ft | 492 kts | 119° |
| 2026-04-25 19:49 | 46.42515 | 20.99600 | 36981 ft | 492 kts | 119° |
| 2026-04-25 19:49 | 46.38742 | 21.09746 | 36986 ft | 492 kts | 119° |
| 2026-04-25 19:50 | 46.33848 | 21.22801 | 36987 ft | 492 kts | 119° |
| 2026-04-25 19:51 | 46.30591 | 21.31491 | 36986 ft | 491 kts | 119° |
| 2026-04-25 19:51 | 46.27320 | 21.40170 | 36981 ft | 491 kts | 120° |
| 2026-04-25 19:52 | 46.24048 | 21.48836 | 36985 ft | 491 kts | 120° |
| 2026-04-25 19:52 | 46.20771 | 21.57489 | 36993 ft | 491 kts | 120° |
| 2026-04-25 19:53 | 46.17491 | 21.66125 | 36990 ft | 491 kts | 120° |
| 2026-04-25 19:53 | 46.14205 | 21.74747 | 36993 ft | 491 kts | 120° |
| 2026-04-25 19:54 | 46.10908 | 21.83363 | 37000 ft | 490 kts | 120° |
| 2026-04-25 19:54 | 46.07607 | 21.91948 | 37005 ft | 490 kts | 120° |
| 2026-04-25 19:55 | 46.04300 | 22.00527 | 37006 ft | 490 kts | 120° |
| 2026-04-25 19:55 | 46.00993 | 22.09095 | 37016 ft | 490 kts | 120° |
| 2026-04-25 19:56 | 45.97676 | 22.17645 | 37016 ft | 489 kts | 120° |
| 2026-04-25 19:56 | 45.94361 | 22.26188 | 37021 ft | 489 kts | 120° |
| 2026-04-25 19:57 | 45.91037 | 22.34716 | 37025 ft | 489 kts | 120° |
| 2026-04-25 19:57 | 45.87702 | 22.43235 | 37033 ft | 489 kts | 120° |
| 2026-04-25 19:58 | 45.84369 | 22.51739 | 37034 ft | 489 kts | 120° |
| 2026-04-25 19:58 | 45.81033 | 22.60224 | 37035 ft | 488 kts | 120° |
| 2026-04-25 19:59 | 45.77689 | 22.68693 | 37034 ft | 488 kts | 120° |
| 2026-04-25 19:59 | 45.74337 | 22.77145 | 37033 ft | 488 kts | 120° |
| 2026-04-25 20:00 | 45.70985 | 22.85585 | 37034 ft | 488 kts | 120° |
| 2026-04-25 20:00 | 45.67651 | 22.93959 | 37032 ft | 487 kts | 120° |
| 2026-04-25 20:01 | 45.62606 | 23.06563 | 37034 ft | 487 kts | 120° |
| 2026-04-25 20:01 | 45.59242 | 23.14947 | 37028 ft | 487 kts | 120° |
| 2026-04-25 20:02 | 45.55864 | 23.23333 | 37031 ft | 488 kts | 120° |
| 2026-04-25 20:02 | 45.52479 | 23.31712 | 37042 ft | 487 kts | 120° |
| 2026-04-25 20:03 | 45.49091 | 23.40081 | 37049 ft | 486 kts | 120° |
| 2026-04-25 20:03 | 45.45711 | 23.48427 | 37043 ft | 486 kts | 120° |
| 2026-04-25 20:04 | 45.42318 | 23.56754 | 37034 ft | 486 kts | 120° |
| 2026-04-25 20:04 | 45.38923 | 23.65068 | 37031 ft | 486 kts | 120° |
| 2026-04-25 20:05 | 45.35515 | 23.73369 | 37023 ft | 486 kts | 120° |
| 2026-04-25 20:05 | 45.32106 | 23.81652 | 37029 ft | 486 kts | 121° |
| 2026-04-25 20:06 | 45.28694 | 23.89925 | 37031 ft | 485 kts | 121° |
| 2026-04-25 20:06 | 45.25283 | 23.98176 | 37023 ft | 484 kts | 120° |
| 2026-04-25 20:07 | 45.21862 | 24.06416 | 37021 ft | 484 kts | 120° |
| 2026-04-25 20:07 | 45.18441 | 24.14646 | 37019 ft | 484 kts | 120° |
| 2026-04-25 20:08 | 45.15016 | 24.22858 | 37012 ft | 484 kts | 120° |
| 2026-04-25 20:08 | 45.11591 | 24.31055 | 37008 ft | 484 kts | 121° |
| 2026-04-25 20:09 | 45.08151 | 24.39240 | 36807 ft | 484 kts | 121° |
| 2026-04-25 20:09 | 45.06416 | 24.43366 | 35651 ft | 493 kts | 121° |
| 2026-04-25 20:09 | 45.04647 | 24.47564 | 34568 ft | 500 kts | 121° |
| 2026-04-25 20:10 | 45.03461 | 24.50371 | 33883 ft | 503 kts | 121° |
| 2026-04-25 20:10 | 45.01055 | 24.56063 | 32417 ft | 506 kts | 121° |
| 2026-04-25 20:10 | 44.99255 | 24.60323 | 31598 ft | 502 kts | 121° |
| 2026-04-25 20:10 | 44.97469 | 24.64542 | 30780 ft | 499 kts | 121° |
| 2026-04-25 20:11 | 44.95696 | 24.68725 | 30085 ft | 494 kts | 121° |
| 2026-04-25 20:11 | 44.93965 | 24.72800 | 29346 ft | 488 kts | 121° |
| 2026-04-25 20:11 | 44.92226 | 24.76888 | 28600 ft | 483 kts | 121° |
| 2026-04-25 20:11 | 44.90502 | 24.80929 | 27874 ft | 478 kts | 121° |
| 2026-04-25 20:12 | 44.88790 | 24.84926 | 27165 ft | 474 kts | 121° |
| 2026-04-25 20:12 | 44.87094 | 24.88885 | 26475 ft | 470 kts | 121° |
| 2026-04-25 20:12 | 44.85412 | 24.92811 | 25800 ft | 466 kts | 121° |
| 2026-04-25 20:12 | 44.84845 | 24.94134 | 25571 ft | 465 kts | 121° |
| 2026-04-25 20:13 | 44.82084 | 25.00573 | 24499 ft | 459 kts | 121° |
| 2026-04-25 20:13 | 44.80441 | 25.04404 | 23871 ft | 455 kts | 121° |
| 2026-04-25 20:13 | 44.78806 | 25.08206 | 23194 ft | 452 kts | 121° |
| 2026-04-25 20:13 | 44.77182 | 25.11976 | 22467 ft | 450 kts | 121° |
| 2026-04-25 20:14 | 44.75699 | 25.15832 | 21756 ft | 446 kts | 111° |
| 2026-04-25 20:14 | 44.74802 | 25.19983 | 21064 ft | 443 kts | 100° |
| 2026-04-25 20:14 | 44.74170 | 25.24211 | 20400 ft | 441 kts | 101° |
| 2026-04-25 20:14 | 44.73536 | 25.28423 | 19509 ft | 444 kts | 101° |
| 2026-04-25 20:15 | 44.72886 | 25.32713 | 18375 ft | 454 kts | 101° |
| 2026-04-25 20:15 | 44.72216 | 25.37090 | 17114 ft | 462 kts | 101° |
| 2026-04-25 20:15 | 44.71532 | 25.41527 | 16055 ft | 465 kts | 101° |
| 2026-04-25 20:15 | 44.70854 | 25.45916 | 15392 ft | 451 kts | 101° |
| 2026-04-25 20:16 | 44.70199 | 25.50147 | 14462 ft | 435 kts | 101° |
| 2026-04-25 20:16 | 44.69565 | 25.54229 | 13599 ft | 420 kts | 101° |
| 2026-04-25 20:16 | 44.68950 | 25.58180 | 12665 ft | 407 kts | 101° |
| 2026-04-25 20:16 | 44.68358 | 25.62003 | 11755 ft | 395 kts | 101° |
| 2026-04-25 20:17 | 44.67785 | 25.65718 | 10874 ft | 383 kts | 101° |
| 2026-04-25 20:17 | 44.67229 | 25.69300 | 10256 ft | 366 kts | 101° |
| 2026-04-25 20:17 | 44.66699 | 25.72666 | 10063 ft | 338 kts | 101° |
| 2026-04-25 20:17 | 44.66209 | 25.75763 | 9966 ft | 311 kts | 101° |
| 2026-04-25 20:18 | 44.65759 | 25.78602 | 9967 ft | 283 kts | 101° |
| 2026-04-25 20:18 | 44.65353 | 25.81179 | 9974 ft | 260 kts | 101° |
| 2026-04-25 20:18 | 44.64961 | 25.83685 | 9972 ft | 264 kts | 101° |
| 2026-04-25 20:18 | 44.64626 | 25.86212 | 9975 ft | 263 kts | 94° |
| 2026-04-25 20:19 | 44.64561 | 25.88769 | 9982 ft | 262 kts | 85° |
| 2026-04-25 20:19 | 44.64741 | 25.91298 | 9974 ft | 261 kts | 82° |
| 2026-04-25 20:19 | 44.64944 | 25.93833 | 9974 ft | 261 kts | 82° |
| 2026-04-25 20:19 | 44.65142 | 25.96360 | 9969 ft | 261 kts | 82° |
| 2026-04-25 20:20 | 44.65331 | 25.98858 | 9973 ft | 261 kts | 82° |
| 2026-04-25 20:20 | 44.65523 | 26.01424 | 9973 ft | 261 kts | 82° |
| 2026-04-25 20:20 | 44.65710 | 26.03924 | 9973 ft | 261 kts | 82° |
| 2026-04-25 20:20 | 44.65901 | 26.06455 | 9975 ft | 261 kts | 82° |
| 2026-04-25 20:21 | 44.66092 | 26.08994 | 9974 ft | 261 kts | 82° |
| 2026-04-25 20:21 | 44.66283 | 26.11526 | 9975 ft | 261 kts | 82° |
| 2026-04-25 20:21 | 44.66476 | 26.14069 | 9739 ft | 262 kts | 82° |
| 2026-04-25 20:21 | 44.66665 | 26.16589 | 9492 ft | 258 kts | 82° |
| 2026-04-25 20:22 | 44.66852 | 26.19095 | 9281 ft | 258 kts | 82° |
| 2026-04-25 20:22 | 44.66915 | 26.19941 | 9218 ft | 257 kts | 83° |
| 2026-04-25 20:22 | 44.67224 | 26.24086 | 8882 ft | 255 kts | 83° |
| 2026-04-25 20:22 | 44.67405 | 26.26523 | 8687 ft | 247 kts | 83° |
| 2026-04-25 20:23 | 44.67581 | 26.28890 | 8492 ft | 240 kts | 83° |
| 2026-04-25 20:23 | 44.67748 | 26.31179 | 8312 ft | 232 kts | 83° |
| 2026-04-25 20:23 | 44.67910 | 26.33402 | 8136 ft | 227 kts | 83° |
| 2026-04-25 20:23 | 44.68070 | 26.35600 | 8004 ft | 225 kts | 83° |
| 2026-04-25 20:24 | 44.68229 | 26.37792 | 7910 ft | 225 kts | 83° |
| 2026-04-25 20:24 | 44.68390 | 26.39977 | 7813 ft | 225 kts | 83° |
| 2026-04-25 20:24 | 44.68551 | 26.42159 | 7673 ft | 224 kts | 83° |
| 2026-04-25 20:24 | 44.68656 | 26.43595 | 7561 ft | 223 kts | 83° |
| 2026-04-25 20:25 | 44.68814 | 26.45761 | 7403 ft | 223 kts | 83° |
| 2026-04-25 20:25 | 44.69021 | 26.48653 | 7190 ft | 222 kts | 83° |
| 2026-04-25 20:25 | 44.69123 | 26.50080 | 7088 ft | 222 kts | 83° |
| 2026-04-25 20:25 | 44.69279 | 26.52230 | 6932 ft | 221 kts | 83° |
| 2026-04-25 20:26 | 44.69337 | 26.53034 | 6866 ft | 221 kts | 83° |
| 2026-04-25 20:26 | 44.69416 | 26.54142 | 6777 ft | 220 kts | 83° |
| 2026-04-25 20:26 | 44.69423 | 26.54239 | 6761 ft | 220 kts | 83° |
| 2026-04-25 20:27 | 44.69570 | 26.56379 | 6597 ft | 220 kts | 83° |
| 2026-04-25 20:27 | 44.69722 | 26.58512 | 6429 ft | 218 kts | 83° |
| 2026-04-25 20:27 | 44.69709 | 26.60628 | 6326 ft | 218 kts | 104° |
| 2026-04-25 20:27 | 44.69026 | 26.62512 | 6279 ft | 219 kts | 133° |
| 2026-04-25 20:28 | 44.67793 | 26.63741 | 6200 ft | 218 kts | 159° |
| 2026-04-25 20:28 | 44.66332 | 26.64258 | 6045 ft | 217 kts | 178° |
| 2026-04-25 20:28 | 44.64841 | 26.64103 | 5874 ft | 215 kts | 197° |
| 2026-04-25 20:28 | 44.63448 | 26.63382 | 5711 ft | 213 kts | 205° |
| 2026-04-25 20:29 | 44.62237 | 26.62235 | 5524 ft | 209 kts | 230° |
| 2026-04-25 20:29 | 44.61263 | 26.60721 | 5326 ft | 209 kts | 233° |
| 2026-04-25 20:29 | 44.60453 | 26.59054 | 5120 ft | 205 kts | 248° |
| 2026-04-25 20:29 | 44.60112 | 26.57137 | 4921 ft | 202 kts | 267° |
| 2026-04-25 20:30 | 44.59990 | 26.55174 | 4729 ft | 202 kts | 266° |
| 2026-04-25 20:30 | 44.59861 | 26.53220 | 4525 ft | 200 kts | 270° |
| 2026-04-25 20:30 | 44.59892 | 26.51275 | 4321 ft | 199 kts | 273° |
| 2026-04-25 20:30 | 44.59937 | 26.49338 | 4119 ft | 198 kts | 273° |
| 2026-04-25 20:31 | 44.59982 | 26.47418 | 3915 ft | 196 kts | 273° |
| 2026-04-25 20:31 | 44.60028 | 26.45512 | 3721 ft | 195 kts | 272° |
| 2026-04-25 20:31 | 44.60072 | 26.43643 | 3525 ft | 194 kts | 272° |
| 2026-04-25 20:31 | 44.60116 | 26.41752 | 3373 ft | 193 kts | 271° |
| 2026-04-25 20:32 | 44.60011 | 26.39877 | 3294 ft | 184 kts | 265° |
| 2026-04-25 20:32 | 44.59882 | 26.38173 | 3309 ft | 165 kts | 265° |
| 2026-04-25 20:32 | 44.59765 | 26.36605 | 3331 ft | 161 kts | 265° |
| 2026-04-25 20:32 | 44.59654 | 26.35124 | 3327 ft | 144 kts | 265° |
| 2026-04-25 20:33 | 44.59552 | 26.33749 | 3316 ft | 141 kts | 265° |
| 2026-04-25 20:33 | 44.59448 | 26.32371 | 3136 ft | 142 kts | 265° |
| 2026-04-25 20:33 | 44.59347 | 26.31011 | 2906 ft | 140 kts | 265° |
| 2026-04-25 20:33 | 44.59279 | 26.30096 | 2763 ft | 139 kts | 265° |
| 2026-04-25 20:34 | 44.59147 | 26.28311 | 2509 ft | 139 kts | 264° |
| 2026-04-25 20:34 | 44.59048 | 26.26972 | 2318 ft | 138 kts | 264° |
| 2026-04-25 20:34 | 44.58949 | 26.25639 | 2131 ft | 137 kts | 264° |
| 2026-04-25 20:34 | 44.58850 | 26.24306 | 1955 ft | 137 kts | 264° |
| 2026-04-25 20:35 | 44.58749 | 26.22978 | 1769 ft | 137 kts | 263° |
| 2026-04-25 20:35 | 44.58655 | 26.21653 | 1596 ft | 136 kts | 264° |
| 2026-04-25 20:35 | 44.58551 | 26.20328 | 1344 ft | 137 kts | 263° |
| 2026-04-25 20:35 | 44.58451 | 26.18992 | 1142 ft | 139 kts | 263° |
| 2026-04-25 20:36 | 44.58376 | 26.17636 | 966 ft | 140 kts | 264° |
| 2026-04-25 20:36 | 44.58270 | 26.16271 | 870 ft | 141 kts | 262° |
| 2026-04-25 20:36 | 44.58150 | 26.14910 | 658 ft | 140 kts | 262° |
| 2026-04-25 20:36 | 44.58052 | 26.13551 | 483 ft | 140 kts | 261° |
| 2026-04-25 20:37 | 44.57948 | 26.12205 | 323 ft | 135 kts | 262° |
| 2026-04-25 20:37 | 44.57878 | 26.11286 | 323 ft | 55 kts | 262° |
| 2026-04-25 20:37 | 44.57837 | 26.10799 | 322 ft | 46 kts | 261° |
| 2026-04-25 20:37 | 44.57809 | 26.10381 | 323 ft | 40 kts | 261° |
| 2026-04-25 20:38 | 44.57737 | 26.10021 | 323 ft | 37 kts | 238° |
| 2026-04-25 20:38 | 44.57615 | 26.09786 | 323 ft | 21 kts | 239° |
| 2026-04-25 20:38 | 44.57575 | 26.09592 | 323 ft | 21 kts | 266° |
| 2026-04-25 20:38 | 44.57560 | 26.09376 | 323 ft | 23 kts | 262° |
| 2026-04-25 20:39 | 44.57535 | 26.09152 | 322 ft | 24 kts | 260° |
| 2026-04-25 20:39 | 44.57524 | 26.08922 | 323 ft | 23 kts | 266° |
| 2026-04-25 20:39 | 44.57509 | 26.08689 | 321 ft | 25 kts | 263° |
| 2026-04-25 20:39 | 44.57494 | 26.08548 | 321 ft | 19 kts | 253° |
| 2026-04-25 20:40 | 44.57367 | 26.08488 | 323 ft | 16 kts | 174° |
| 2026-04-25 20:40 | 44.57256 | 26.08506 | 321 ft | 16 kts | 173° |
| 2026-04-25 20:40 | 44.57130 | 26.08521 | 323 ft | 21 kts | 175° |
| 2026-04-25 20:40 | 44.56977 | 26.08546 | 323 ft | 22 kts | 175° |
| 2026-04-25 20:41 | 44.56895 | 26.08470 | 323 ft | 15 kts | 264° |
| 2026-04-25 20:41 | 44.56945 | 26.08358 | 323 ft | 14 kts | 297° |
| 2026-04-25 20:41 | 44.56943 | 26.08219 | 323 ft | 15 kts | 265° |
| 2026-04-25 20:41 | 44.56966 | 26.08141 | 323 ft | 8 kts | 352° |
| 2026-04-25 20:42 | 44.57016 | 26.08134 | 323 ft | 2 kts | 354° |
| 2026-04-25 20:42 | 44.57021 | 26.08133 | 320 ft | 0 kts | 354° |